26fukujumaru — JM6129 — position and weather

sailwx.info

Track history (hours):
 
Tides and Currents Weather Stations Pressure Air Temp Water Temp Dewpoint Dewpoint Depression Visibility Wind Speed Wind Dir Waves Ship Positions

26fukujumaru

Last reported at 2017-Oct-21 06:31 UTC. Time now 2017-Oct-22 23:04 UTC.
Position N 35°27' E 139°45'.

Length 65 m.

Type: Tanker. MMSI: 431600124.

Date/timePositionNaut miles runAvg speedWind from/ knotsBaromVisibWave heightAir tempDewpointWater temp
2017-Oct-21 06:31N 35°27' E 139°45'110.9
2017-Oct-21 06:28N 35°27' E 139°44'3 6.5
2017-Oct-21 06:00N 35°28' E 139°40'0 0.1
2017-Oct-21 05:18N 35°28' E 139°40'0 0.0
2017-Oct-21 04:57N 35°28' E 139°40'0 0.0
2017-Oct-21 04:27N 35°28' E 139°40'0 0.8
2017-Oct-21 04:00N 35°28' E 139°40'2 3.4
2017-Oct-21 03:26N 35°27' E 139°42'0 0.1
2017-Oct-21 02:41N 35°27' E 139°42'1 5.0
2017-Oct-21 02:28N 35°28' E 139°42'5 1.4
2017-Oct-20 22:51N 35°23' E 139°41'1 2.7
2017-Oct-20 22:25N 35°22' E 139°40'0 0.0
2017-Oct-20 21:49N 35°22' E 139°40'0 0.0
2017-Oct-20 21:28N 35°22' E 139°40'0 0.0
2017-Oct-20 20:58N 35°22' E 139°40'0 0.0
2017-Oct-20 20:25N 35°22' E 139°40'0 0.0
2017-Oct-20 19:46N 35°22' E 139°40'0 0.0
2017-Oct-20 19:19N 35°22' E 139°40'0 0.0
2017-Oct-20 17:31N 35°22' E 139°40'0 0.0
2017-Oct-20 17:28N 35°22' E 139°40'0 0.0
2017-Oct-20 16:58N 35°22' E 139°40'0 0.0
2017-Oct-20 15:25N 35°22' E 139°40'0 0.0
2017-Oct-20 14:49N 35°22' E 139°40'0 0.0
2017-Oct-20 11:46N 35°22' E 139°40'0 0.1
2017-Oct-20 11:13N 35°22' E 139°40'0 0.0
2017-Oct-20 10:49N 35°22' E 139°40'0 0.0
2017-Oct-20 10:28N 35°22' E 139°40'0 0.0
2017-Oct-20 09:04N 35°22' E 139°40'0 0.0
2017-Oct-20 09:01N 35°22' E 139°40'0 0.0
2017-Oct-20 08:28N 35°22' E 139°40'0 0.0
2017-Oct-20 07:28N 35°22' E 139°40'0 0.0
2017-Oct-20 05:46N 35°22' E 139°40'0 0.0
2017-Oct-20 05:22N 35°22' E 139°40'0 0.0
2017-Oct-20 04:52N 35°22' E 139°40'0 0.0
2017-Oct-20 04:31N 35°22' E 139°40'0 0.0
2017-Oct-20 03:52N 35°22' E 139°40'0 0.0
2017-Oct-20 03:28N 35°22' E 139°40'0 0.0
2017-Oct-20 02:52N 35°22' E 139°40'0 0.0
2017-Oct-20 02:25N 35°22' E 139°40'0 0.0
2017-Oct-19 23:01N 35°22' E 139°40'0 0.0
2017-Oct-19 22:25N 35°22' E 139°40'0 0.0
2017-Oct-19 21:40N 35°22' E 139°40'0 0.0
2017-Oct-19 21:19N 35°22' E 139°40'0 0.0
2017-Oct-19 20:28N 35°22' E 139°40'0 0.0
2017-Oct-19 17:28N 35°22' E 139°40'0 0.0
2017-Oct-19 15:37N 35°22' E 139°40'0 0.0
2017-Oct-19 14:07N 35°22' E 139°40'0 0.0
2017-Oct-19 12:34N 35°22' E 139°40'0 0.0
2017-Oct-19 12:22N 35°22' E 139°40'0 0.0
2017-Oct-19 11:37N 35°22' E 139°40'0 0.3
2017-Oct-19 11:28N 35°22' E 139°40'0 0.0
2017-Oct-19 10:55N 35°22' E 139°40'0 0.0
2017-Oct-19 10:25N 35°22' E 139°40'0 0.0
2017-Oct-19 09:46N 35°22' E 139°40'0 0.0
2017-Oct-19 09:16N 35°22' E 139°40'0 0.1
2017-Oct-19 08:52N 35°22' E 139°40'0 0.0
2017-Oct-19 06:58N 35°22' E 139°40'0 0.0
2017-Oct-19 06:22N 35°22' E 139°40'0 0.0
2017-Oct-19 05:58N 35°22' E 139°40'0 0.0
2017-Oct-19 05:16N 35°22' E 139°40'0 0.0
2017-Oct-19 03:15N 35°22' E 139°40'2 7.2
2017-Oct-19 03:00N 35°23' E 139°42'7 3.0
2017-Oct-19 00:36N 35°30' E 139°45'0 0.0
2017-Oct-19 00:12N 35°30' E 139°45'3 0.2
2017-Oct-18 08:19N 35°28' E 139°46'310.2
2017-Oct-18 07:59N 35°27' E 139°42'3 5.1
2017-Oct-18 07:24N 35°28' E 139°39'0 0.0
2017-Oct-18 06:54N 35°28' E 139°39'0 0.0
2017-Oct-18 05:36N 35°28' E 139°39'0 0.0
2017-Oct-18 05:12N 35°28' E 139°39'0 0.0
2017-Oct-18 04:57N 35°28' E 139°39'0 0.0
2017-Oct-18 04:03N 35°28' E 139°39'0 0.1
2017-Oct-18 03:57N 35°28' E 139°39'1 2.2
2017-Oct-18 03:30N 35°28' E 139°40'5 8.3
2017-Oct-18 02:53N 35°24' E 139°43'12 9.6
2017-Oct-18 01:41N 35°13' E 139°47'210.3
2017-Oct-18 01:30N 35°11' E 139°46'510.9
2017-Oct-18 01:00N 35°06' E 139°45'  
2017-Oct-13 10:53N 34°57' E 139°44'511.5
2017-Oct-13 10:29N 35°02' E 139°44'511.2
2017-Oct-13 10:00N 35°07' E 139°45'611.4
2017-Oct-13 09:30N 35°13' E 139°46'1010.7
2017-Oct-13 08:32N 35°23' E 139°42'011.7
2017-Oct-13 08:30N 35°23' E 139°42'510.1
2017-Oct-13 08:00N 35°28' E 139°40'0 0.8
2017-Oct-13 07:22N 35°28' E 139°40'0 0.0
2017-Oct-13 06:43N 35°28' E 139°40'0 0.0
2017-Oct-13 06:28N 35°28' E 139°40'0 0.1
2017-Oct-13 05:58N 35°28' E 139°41'2 3.4
2017-Oct-13 05:29N 35°27' E 139°42'1 1.1
2017-Oct-13 04:56N 35°27' E 139°42'0 0.0
2017-Oct-13 03:53N 35°27' E 139°42'0 0.0
2017-Oct-13 03:26N 35°27' E 139°42'0 0.0
2017-Oct-13 02:59N 35°27' E 139°42'2 0.3
2017-Oct-12 21:05N 35°27' E 139°45'1 9.4
2017-Oct-12 20:59N 35°27' E 139°43'4 8.7
2017-Oct-12 20:30N 35°29' E 139°39'0 0.0
2017-Oct-12 20:00N 35°29' E 139°39'0 0.0
2017-Oct-12 19:27N 35°29' E 139°39'0 0.0
2017-Oct-12 18:54N 35°29' E 139°39'0 0.0
2017-Oct-12 18:24N 35°29' E 139°39'0 0.0
2017-Oct-12 17:33N 35°29' E 139°39'0 0.0
2017-Oct-12 17:27N 35°29' E 139°39'0 0.0
2017-Oct-12 16:54N 35°29' E 139°39'0 0.0
2017-Oct-12 16:00N 35°29' E 139°39'0 0.0
2017-Oct-12 15:27N 35°29' E 139°39'0 0.0
2017-Oct-12 14:57N 35°29' E 139°39'0 0.0
2017-Oct-12 14:27N 35°29' E 139°39'0 0.0
2017-Oct-12 12:57N 35°29' E 139°39'0 0.0
2017-Oct-12 12:18N 35°29' E 139°39'0 0.0
2017-Oct-12 09:57N 35°29' E 139°39'0 0.0
2017-Oct-12 09:30N 35°29' E 139°39'0 0.0
2017-Oct-12 08:39N 35°29' E 139°39'0 0.0
2017-Oct-12 08:15N 35°29' E 139°39'0 0.0
2017-Oct-12 07:18N 35°29' E 139°39'0 0.0
2017-Oct-12 06:54N 35°29' E 139°39'0 0.0
2017-Oct-12 06:03N 35°29' E 139°39'0 0.0
2017-Oct-12 05:51N 35°29' E 139°39'0 0.0
2017-Oct-12 05:30N 35°29' E 139°39'0 0.0
2017-Oct-12 05:00N 35°29' E 139°39'0 0.0
2017-Oct-12 04:24N 35°29' E 139°39'0 0.0
2017-Oct-12 03:57N 35°29' E 139°39'0 0.0
2017-Oct-12 03:03N 35°29' E 139°39'0 0.0
2017-Oct-12 02:15N 35°29' E 139°39'0 0.0
2017-Oct-12 01:57N 35°29' E 139°39'0 0.4
2017-Oct-12 01:30N 35°29' E 139°39'  
Track history (hours):
 
Tides and Currents Weather Stations Pressure Air Temp Water Temp Dewpoint Dewpoint Depression Visibility Wind Speed Wind Dir Waves Ship Positions

26fukujumaru

Last reported at 2017-Oct-21 06:31 UTC. Time now 2017-Oct-22 23:04 UTC.
Position N 35°27' E 139°45'.

Length 65 m.

Type: Tanker. MMSI: 431600124.

Date/timePositionNaut miles runAvg speedWind from/ knotsBaromVisibWave heightAir tempDewpointWater temp
2017-Oct-21 06:31N 35°27' E 139°45'110.9
2017-Oct-21 06:28N 35°27' E 139°44'3 6.5
2017-Oct-21 06:00N 35°28' E 139°40'0 0.1
2017-Oct-21 05:18N 35°28' E 139°40'0 0.0
2017-Oct-21 04:57N 35°28' E 139°40'0 0.0
2017-Oct-21 04:27N 35°28' E 139°40'0 0.8
2017-Oct-21 04:00N 35°28' E 139°40'2 3.4
2017-Oct-21 03:26N 35°27' E 139°42'0 0.1
2017-Oct-21 02:41N 35°27' E 139°42'1 5.0
2017-Oct-21 02:28N 35°28' E 139°42'5 1.4
2017-Oct-20 22:51N 35°23' E 139°41'1 2.7
2017-Oct-20 22:25N 35°22' E 139°40'0 0.0
2017-Oct-20 21:49N 35°22' E 139°40'0 0.0
2017-Oct-20 21:28N 35°22' E 139°40'0 0.0
2017-Oct-20 20:58N 35°22' E 139°40'0 0.0
2017-Oct-20 20:25N 35°22' E 139°40'0 0.0
2017-Oct-20 19:46N 35°22' E 139°40'0 0.0
2017-Oct-20 19:19N 35°22' E 139°40'0 0.0
2017-Oct-20 17:31N 35°22' E 139°40'0 0.0
2017-Oct-20 17:28N 35°22' E 139°40'0 0.0
2017-Oct-20 16:58N 35°22' E 139°40'0 0.0
2017-Oct-20 15:25N 35°22' E 139°40'0 0.0
2017-Oct-20 14:49N 35°22' E 139°40'0 0.0
2017-Oct-20 11:46N 35°22' E 139°40'0 0.1
2017-Oct-20 11:13N 35°22' E 139°40'0 0.0
2017-Oct-20 10:49N 35°22' E 139°40'0 0.0
2017-Oct-20 10:28N 35°22' E 139°40'0 0.0
2017-Oct-20 09:04N 35°22' E 139°40'0 0.0
2017-Oct-20 09:01N 35°22' E 139°40'0 0.0
2017-Oct-20 08:28N 35°22' E 139°40'0 0.0
2017-Oct-20 07:28N 35°22' E 139°40'0 0.0
2017-Oct-20 05:46N 35°22' E 139°40'0 0.0
2017-Oct-20 05:22N 35°22' E 139°40'0 0.0
2017-Oct-20 04:52N 35°22' E 139°40'0 0.0
2017-Oct-20 04:31N 35°22' E 139°40'0 0.0
2017-Oct-20 03:52N 35°22' E 139°40'0 0.0
2017-Oct-20 03:28N 35°22' E 139°40'0 0.0
2017-Oct-20 02:52N 35°22' E 139°40'0 0.0
2017-Oct-20 02:25N 35°22' E 139°40'0 0.0
2017-Oct-19 23:01N 35°22' E 139°40'0 0.0
2017-Oct-19 22:25N 35°22' E 139°40'0 0.0
2017-Oct-19 21:40N 35°22' E 139°40'0 0.0
2017-Oct-19 21:19N 35°22' E 139°40'0 0.0
2017-Oct-19 20:28N 35°22' E 139°40'0 0.0
2017-Oct-19 17:28N 35°22' E 139°40'0 0.0
2017-Oct-19 15:37N 35°22' E 139°40'0 0.0
2017-Oct-19 14:07N 35°22' E 139°40'0 0.0
2017-Oct-19 12:34N 35°22' E 139°40'0 0.0
2017-Oct-19 12:22N 35°22' E 139°40'0 0.0
2017-Oct-19 11:37N 35°22' E 139°40'0 0.3
2017-Oct-19 11:28N 35°22' E 139°40'0 0.0
2017-Oct-19 10:55N 35°22' E 139°40'0 0.0
2017-Oct-19 10:25N 35°22' E 139°40'0 0.0
2017-Oct-19 09:46N 35°22' E 139°40'0 0.0
2017-Oct-19 09:16N 35°22' E 139°40'0 0.1
2017-Oct-19 08:52N 35°22' E 139°40'0 0.0
2017-Oct-19 06:58N 35°22' E 139°40'0 0.0
2017-Oct-19 06:22N 35°22' E 139°40'0 0.0
2017-Oct-19 05:58N 35°22' E 139°40'0 0.0
2017-Oct-19 05:16N 35°22' E 139°40'0 0.0
2017-Oct-19 03:15N 35°22' E 139°40'2 7.2
2017-Oct-19 03:00N 35°23' E 139°42'7 3.0
2017-Oct-19 00:36N 35°30' E 139°45'0 0.0
2017-Oct-19 00:12N 35°30' E 139°45'3 0.2
2017-Oct-18 08:19N 35°28' E 139°46'310.2
2017-Oct-18 07:59N 35°27' E 139°42'3 5.1
2017-Oct-18 07:24N 35°28' E 139°39'0 0.0
2017-Oct-18 06:54N 35°28' E 139°39'0 0.0
2017-Oct-18 05:36N 35°28' E 139°39'0 0.0
2017-Oct-18 05:12N 35°28' E 139°39'0 0.0
2017-Oct-18 04:57N 35°28' E 139°39'0 0.0
2017-Oct-18 04:03N 35°28' E 139°39'0 0.1
2017-Oct-18 03:57N 35°28' E 139°39'1 2.2
2017-Oct-18 03:30N 35°28' E 139°40'5 8.3
2017-Oct-18 02:53N 35°24' E 139°43'12 9.6
2017-Oct-18 01:41N 35°13' E 139°47'210.3
2017-Oct-18 01:30N 35°11' E 139°46'510.9
2017-Oct-18 01:00N 35°06' E 139°45'  
2017-Oct-13 10:53N 34°57' E 139°44'511.5
2017-Oct-13 10:29N 35°02' E 139°44'511.2
2017-Oct-13 10:00N 35°07' E 139°45'611.4
2017-Oct-13 09:30N 35°13' E 139°46'1010.7
2017-Oct-13 08:32N 35°23' E 139°42'011.7
2017-Oct-13 08:30N 35°23' E 139°42'510.1
2017-Oct-13 08:00N 35°28' E 139°40'0 0.8
2017-Oct-13 07:22N 35°28' E 139°40'0 0.0
2017-Oct-13 06:43N 35°28' E 139°40'0 0.0
2017-Oct-13 06:28N 35°28' E 139°40'0 0.1
2017-Oct-13 05:58N 35°28' E 139°41'2 3.4
2017-Oct-13 05:29N 35°27' E 139°42'1 1.1
2017-Oct-13 04:56N 35°27' E 139°42'0 0.0
2017-Oct-13 03:53N 35°27' E 139°42'0 0.0
2017-Oct-13 03:26N 35°27' E 139°42'0 0.0
2017-Oct-13 02:59N 35°27' E 139°42'2 0.3
2017-Oct-12 21:05N 35°27' E 139°45'1 9.4
2017-Oct-12 20:59N 35°27' E 139°43'4 8.7
2017-Oct-12 20:30N 35°29' E 139°39'0 0.0
2017-Oct-12 20:00N 35°29' E 139°39'0 0.0
2017-Oct-12 19:27N 35°29' E 139°39'0 0.0
2017-Oct-12 18:54N 35°29' E 139°39'0 0.0
2017-Oct-12 18:24N 35°29' E 139°39'0 0.0
2017-Oct-12 17:33N 35°29' E 139°39'0 0.0
2017-Oct-12 17:27N 35°29' E 139°39'0 0.0
2017-Oct-12 16:54N 35°29' E 139°39'0 0.0
2017-Oct-12 16:00N 35°29' E 139°39'0 0.0
2017-Oct-12 15:27N 35°29' E 139°39'0 0.0
2017-Oct-12 14:57N 35°29' E 139°39'0 0.0
2017-Oct-12 14:27N 35°29' E 139°39'0 0.0
2017-Oct-12 12:57N 35°29' E 139°39'0 0.0
2017-Oct-12 12:18N 35°29' E 139°39'0 0.0
2017-Oct-12 09:57N 35°29' E 139°39'0 0.0
2017-Oct-12 09:30N 35°29' E 139°39'0 0.0
2017-Oct-12 08:39N 35°29' E 139°39'0 0.0
2017-Oct-12 08:15N 35°29' E 139°39'0 0.0
2017-Oct-12 07:18N 35°29' E 139°39'0 0.0
2017-Oct-12 06:54N 35°29' E 139°39'0 0.0
2017-Oct-12 06:03N 35°29' E 139°39'0 0.0
2017-Oct-12 05:51N 35°29' E 139°39'0 0.0
2017-Oct-12 05:30N 35°29' E 139°39'0 0.0
2017-Oct-12 05:00N 35°29' E 139°39'0 0.0
2017-Oct-12 04:24N 35°29' E 139°39'0 0.0
2017-Oct-12 03:57N 35°29' E 139°39'0 0.0
2017-Oct-12 03:03N 35°29' E 139°39'0 0.0
2017-Oct-12 02:15N 35°29' E 139°39'0 0.0
2017-Oct-12 01:57N 35°29' E 139°39'0 0.4
2017-Oct-12 01:30N 35°29' E 139°39'  

Dump ship's entire track history